Time;durP1;ratioP1;P1;durP2;ratioP2;P2;SDS_P1;SDS_P2;PMS_P1;PMS_P2;Temp;Humidity;BMP_temperature;BMP_pressure;BME280_temperature;BME280_humidity;BME280_pressure;Samples;Min_cycle;Max_cycle;Signal;HPM_P1;HPM_P2
2022/11/16 00:00:50;1893252.00;6.31;3407.39;77020.00;0.26;133.89;;;;;16.00;4.80;;;;;;2249845;61;1181;-87
2022/11/16 00:08:14;953205.00;3.18;1649.76;56482.00;0.19;98.39;;;;;16.10;3.70;;;;;;2258235;61;1982;-87
2022/11/16 00:10:43;275090.00;0.92;475.10;0.00;0.00;0.62;;;;;15.80;4.70;;;;;;2256177;61;1088;-88
2022/11/16 00:13:10;1164679.00;3.88;2026.49;55865.00;0.19;97.33;;;;;15.90;4.90;;;;;;2256111;61;1986;-89
2022/11/16 00:15:37;1262041.00;4.21;2202.80;56415.00;0.19;98.28;;;;;16.00;5.20;;;;;;2256129;61;1111;-88
2022/11/16 00:18:06;324906.00;1.08;560.73;88911.00;0.30;154.43;;;;;16.20;4.30;;;;;;2256212;61;1869;-86
2022/11/16 00:20:33;269262.00;0.90;465.07;0.00;0.00;0.62;;;;;16.10;4.00;;;;;;2256041;61;1841;-90
2022/11/16 00:23:01;36123.00;0.12;63.18;0.00;0.00;0.62;;;;;16.00;4.30;;;;;;2256048;61;1030;-88
2022/11/16 00:25:28;477169.00;1.59;822.53;41920.00;0.14;73.21;;;;;15.70;5.20;;;;;;2256052;61;1086;-88
2022/11/16 00:27:55;1655864.00;5.52;2939.99;164619.00;0.55;285.00;;;;;15.60;5.20;;;;;;2255970;61;1266;-89
2022/11/16 00:37:55;808665.00;2.70;1396.24;29597.00;0.10;51.89;;;;;15.70;6.20;;;;;;2266220;40;3386;-87
2022/11/16 00:47:49;1100078.00;3.67;1910.56;74239.00;0.25;129.08;;;;;16.10;4.70;;;;;;2257798;61;1375;-87
2022/11/16 00:52:46;1037851.00;3.46;1799.63;0.00;0.00;0.62;;;;;16.00;4.00;;;;;;2312034;41;3576;-88
2022/11/16 00:57:47;939425.00;3.13;1625.47;0.00;0.00;0.62;;;;;15.40;5.50;;;;;;2304408;40;3686;-89
2022/11/16 01:10:22;124496544.00;414.99;78175552.00;146814.00;0.49;254.32;;;;;15.70;5.70;;;;;;2261223;61;1398;-89
2022/11/16 01:12:51;342064.00;1.14;590.22;0.00;0.00;0.62;;;;;15.40;5.80;;;;;;2312047;41;3601;-89
2022/11/16 01:15:20;401000.00;1.34;691.52;66850.00;0.22;116.32;;;;;15.60;5.90;;;;;;2259857;61;1609;-90
2022/11/16 01:17:51;262007.00;0.87;452.60;0.00;0.00;0.62;;;;;15.50;5.60;;;;;;2257781;61;1725;-88
2022/11/16 01:20:20;226615.00;0.76;391.73;0.00;0.00;0.62;;;;;15.40;6.40;;;;;;2256093;61;1151;-88
2022/11/16 01:22:47;797834.00;2.66;1377.35;49692.00;0.17;86.65;;;;;15.60;6.20;;;;;;2255970;61;1117;-87
2022/11/16 01:25:16;816568.00;2.72;1410.03;58781.00;0.20;102.37;;;;;15.90;6.00;;;;;;2255901;61;1539;-86
2022/11/16 01:27:44;282161.00;0.94;487.25;74.00;0.00;0.75;;;;;15.80;5.50;;;;;;2255851;61;1396;-89
2022/11/16 01:30:15;287129.00;0.96;495.79;0.00;0.00;0.62;;;;;15.90;5.60;;;;;;2256132;61;1075;-89
2022/11/16 01:32:42;191306.00;0.64;330.96;0.00;0.00;0.62;;;;;15.90;5.20;;;;;;2256404;61;1994;-89
2022/11/16 01:35:14;194562.00;0.65;336.56;0.00;0.00;0.62;;;;;15.90;5.70;;;;;;2256776;61;1144;-89
2022/11/16 01:37:41;567711.00;1.89;978.50;28839.00;0.10;50.57;;;;;16.00;4.90;;;;;;2256633;61;1724;-88
2022/11/16 01:40:10;962969.00;3.21;1666.99;49634.00;0.17;86.55;;;;;16.00;5.10;;;;;;2276144;40;3784;-89
2022/11/16 01:42:38;1853433.00;6.18;3327.59;140879.00;0.47;244.09;;;;;15.80;5.10;;;;;;2257103;61;1606;-87
2022/11/16 01:45:19;604926.00;2.02;1042.73;161020.00;0.54;278.80;;;;;15.80;5.20;;;;;;2256656;61;1629;-87
2022/11/16 01:47:46;491815.00;1.64;847.73;85993.00;0.29;149.39;;;;;15.80;5.30;;;;;;2256563;61;1339;-88
2022/11/16 01:50:16;169459.00;0.56;293.33;0.00;0.00;0.62;;;;;15.80;5.70;;;;;;2256423;61;1669;-88
2022/11/16 01:52:51;486243.00;1.62;838.14;27686.00;0.09;48.58;;;;;16.00;5.00;;;;;;2256540;61;1918;-86
2022/11/16 01:55:19;498576.00;1.66;859.37;0.00;0.00;0.62;;;;;16.00;4.70;;;;;;2256717;61;1162;-86
2022/11/16 01:57:51;1126875.00;3.76;1958.55;46892.00;0.16;81.81;;;;;16.10;4.60;;;;;;2256518;61;1627;-88
2022/11/16 02:00:20;213197.00;0.71;368.64;0.00;0.00;0.62;;;;;16.20;4.40;;;;;;2256604;61;1116;-88
2022/11/16 02:02:47;209225.00;0.70;361.80;0.00;0.00;0.62;;;;;16.40;4.20;;;;;;2256645;61;1104;-89
2022/11/16 02:05:19;1333175.00;4.44;2332.95;98770.00;0.33;171.45;;;;;16.20;4.80;;;;;;2256682;61;1524;-88
2022/11/16 02:11:35;526079.00;1.75;906.74;85996.00;0.29;149.39;;;;;16.30;4.80;;;;;;2256695;61;656;-89
2022/11/16 02:14:15;326268.00;1.09;563.07;47880.00;0.16;83.52;;;;;16.00;5.50;;;;;;2256527;61;2011;-91
2022/11/16 02:16:53;134991.00;0.45;233.94;0.00;0.00;0.62;;;;;16.00;5.60;;;;;;2256303;61;1288;-89
2022/11/16 02:19:47;194666.00;0.65;336.74;5954.00;0.02;10.94;;;;;16.00;5.40;;;;;;2256518;61;1119;-89
2022/11/16 02:22:30;800028.00;2.67;1381.17;106965.00;0.36;185.59;;;;;16.00;5.40;;;;;;2256538;61;1828;-89
2022/11/16 02:25:05;1200687.00;4.00;2091.46;38008.00;0.13;66.44;;;;;16.10;5.30;;;;;;2256366;61;1577;-90
2022/11/16 02:28:10;114252.00;0.38;198.17;0.00;0.00;0.62;;;;;15.90;5.50;;;;;;2256410;61;1406;-89
2022/11/16 02:30:45;175524.00;0.59;303.78;0.00;0.00;0.62;;;;;15.60;6.50;;;;;;2256021;61;1619;-89
2022/11/16 02:33:16;284987.00;0.95;492.11;0.00;0.00;0.62;;;;;15.50;6.60;;;;;;2256291;61;2003;-89
2022/11/16 02:38:19;1405399.00;4.68;2466.34;99882.00;0.33;173.37;;;;;15.60;7.10;;;;;;2266037;56;3680;-86
2022/11/16 02:40:52;604574.00;2.02;1042.12;84886.00;0.28;147.48;;;;;15.60;6.10;;;;;;2256321;61;1009;-88
2022/11/16 02:43:26;358492.00;1.19;618.46;29293.00;0.10;51.36;;;;;15.70;6.30;;;;;;2256349;61;1107;-88
2022/11/16 02:46:01;207704.00;0.69;359.18;0.00;0.00;0.62;;;;;15.90;6.20;;;;;;2256337;61;1070;-90
2022/11/16 02:48:35;370715.00;1.24;639.47;0.00;0.00;0.62;;;;;16.00;5.70;;;;;;2256243;61;1788;-88
2022/11/16 02:51:06;331599.00;1.11;572.23;28739.00;0.10;50.40;;;;;16.20;5.60;;;;;;2264532;56;3792;-88
2022/11/16 02:53:40;216838.00;0.72;374.90;0.00;0.00;0.62;;;;;16.20;5.00;;;;;;2260402;61;1996;-88
2022/11/16 02:56:11;1895566.00;6.32;3412.05;219994.00;0.73;380.33;;;;;16.10;5.10;;;;;;2260451;61;1136;-87
2022/11/16 02:58:39;791418.00;2.64;1366.16;82173.00;0.27;142.79;;;;;16.20;5.30;;;;;;2256828;61;1464;-88
2022/11/16 03:01:12;197175.00;0.66;341.06;16918.00;0.06;29.93;;;;;16.30;4.90;;;;;;2256453;61;1732;-88
2022/11/16 03:03:49;425161.00;1.42;733.06;0.00;0.00;0.62;;;;;16.30;4.60;;;;;;2256443;61;1670;-87
2022/11/16 03:06:22;175776.00;0.59;304.22;37136.00;0.12;64.93;;;;;16.40;5.00;;;;;;2256479;61;1113;-87
2022/11/16 03:08:56;1778509.00;5.93;3179.01;152105.00;0.51;263.44;;;;;16.40;4.60;;;;;;2256352;61;1587;-87
2022/11/16 03:14:14;260018.00;0.87;449.18;81987.00;0.27;142.47;;;;;16.30;5.10;;;;;;2256435;61;2028;-88
2022/11/16 03:16:47;24135.00;0.08;42.43;0.00;0.00;0.62;;;;;16.20;4.40;;;;;;2256262;61;1542;-87
2022/11/16 03:19:21;28187.00;0.09;49.44;0.00;0.00;0.62;;;;;15.90;5.40;;;;;;2256284;61;1161;-89
2022/11/16 03:21:54;111170.00;0.37;192.85;0.00;0.00;0.62;;;;;16.00;5.10;;;;;;2256385;61;1791;-87
2022/11/16 03:24:24;1231662.00;4.11;2147.57;27065.00;0.09;47.50;;;;;16.20;5.10;;;;;;2258510;56;3753;-87
2022/11/16 03:29:29;459077.00;1.53;791.40;0.00;0.00;0.62;;;;;16.00;5.20;;;;;;2261973;61;1441;-88
2022/11/16 03:32:06;783567.00;2.61;1352.48;28129.00;0.09;49.34;;;;;16.20;5.20;;;;;;2260370;61;1014;-87
2022/11/16 03:34:37;2137821.00;7.13;3911.26;173574.00;0.58;300.42;;;;;16.30;5.10;;;;;;2260319;61;1932;-87
2022/11/16 03:37:07;431667.00;1.44;744.25;82311.00;0.27;143.03;;;;;16.10;4.70;;;;;;2260072;61;1789;-87
2022/11/16 03:39:39;187694.00;0.63;324.74;0.00;0.00;0.62;;;;;16.00;5.10;;;;;;2260251;61;1015;-87
2022/11/16 03:42:13;187574.00;0.63;324.53;0.00;0.00;0.62;;;;;16.00;5.70;;;;;;2260237;61;1605;-88
2022/11/16 03:44:42;230270.00;0.77;398.01;0.00;0.00;0.62;;;;;16.20;5.10;;;;;;2260190;61;1628;-86
2022/11/16 03:47:12;170942.00;0.57;295.89;0.00;0.00;0.62;;;;;16.10;5.10;;;;;;2259966;61;1409;-87
2022/11/16 03:49:44;821478.00;2.74;1418.61;19421.00;0.06;34.27;;;;;15.70;5.90;;;;;;2260102;61;1114;-88
2022/11/16 03:52:12;404035.00;1.35;696.74;85504.00;0.29;148.54;;;;;15.80;6.20;;;;;;2260405;61;1164;-90
2022/11/16 03:54:39;410137.00;1.37;707.23;21904.00;0.07;38.57;;;;;15.90;5.90;;;;;;2260040;61;1994;-87
2022/11/16 03:57:07;157129.00;0.52;272.09;0.00;0.00;0.62;;;;;16.00;5.70;;;;;;2260185;61;1305;-87
2022/11/16 03:59:34;354109.00;1.18;610.92;19074.00;0.06;33.67;;;;;16.00;5.70;;;;;;2260250;61;1710;-88
2022/11/16 04:02:01;807523.00;2.69;1394.25;50944.00;0.17;88.82;;;;;16.00;5.50;;;;;;2260212;61;1629;-89
2022/11/16 04:29:13;630600.00;2.10;1087.09;0.00;0.00;0.62;;;;;15.60;6.20;;;;;;2260101;61;1297;-89
2022/11/16 04:39:59;82358.00;0.27;143.11;0.00;0.00;0.62;;;;;15.40;7.20;;;;;;2260236;61;720;-87
2022/11/16 04:42:26;44466.00;0.15;77.61;0.00;0.00;0.62;;;;;15.50;7.00;;;;;;2260017;61;1089;-88
2022/11/16 04:47:38;692252.00;2.31;1193.81;0.00;0.00;0.62;;;;;15.80;7.00;;;;;;2260045;61;1291;-86
2022/11/16 04:50:06;294609.00;0.98;508.65;104428.00;0.35;181.21;;;;;15.80;6.50;;;;;;2260075;61;1348;-88
2022/11/16 04:52:34;3192.00;0.01;6.15;0.00;0.00;0.62;;;;;15.90;6.60;;;;;;2259945;61;1909;-86
2022/11/16 04:55:01;99322.00;0.33;172.40;0.00;0.00;0.62;;;;;15.90;6.50;;;;;;2260189;61;1643;-88
2022/11/16 04:57:28;989075.00;3.30;1713.13;0.00;0.00;0.62;;;;;16.00;6.40;;;;;;2259848;61;1422;-87
2022/11/16 04:59:55;699056.00;2.33;1205.60;106296.00;0.35;184.44;;;;;16.10;6.20;;;;;;2259997;61;1052;-87
2022/11/16 05:02:22;140572.00;0.47;243.56;31100.00;0.10;54.49;;;;;16.10;6.50;;;;;;2259822;61;1084;-90
2022/11/16 05:04:49;649256.00;2.16;1119.35;127290.00;0.42;220.66;;;;;15.90;6.50;;;;;;2259699;61;1626;-88
2022/11/16 05:07:16;664186.00;2.21;1145.19;0.00;0.00;0.62;;;;;15.80;6.30;;;;;;2260850;61;1403;-87
2022/11/16 05:09:46;757341.00;2.52;1306.82;126965.00;0.42;220.10;;;;;15.90;6.30;;;;;;2261385;61;1032;-89
2022/11/16 05:12:15;204830.00;0.68;354.24;0.00;0.00;0.62;;;;;15.70;6.60;;;;;;2261363;61;1802;-87
2022/11/16 05:14:43;218636.00;0.73;378.00;0.00;0.00;0.62;;;;;15.30;8.00;;;;;;2261121;61;2017;-89
2022/11/16 05:17:11;459222.00;1.53;791.65;43796.00;0.15;76.46;;;;;15.00;8.40;;;;;;2261390;61;1384;-89
2022/11/16 05:22:23;556677.00;1.86;959.47;89073.00;0.30;154.71;;;;;14.30;10.80;;;;;;2261150;61;650;-89
2022/11/16 05:24:52;78787.00;0.26;136.94;0.00;0.00;0.62;;;;;14.30;11.50;;;;;;2261055;61;1077;-88
2022/11/16 05:27:21;169854.00;0.57;294.02;0.00;0.00;0.62;;;;;14.70;11.10;;;;;;2260901;61;1462;-88
2022/11/16 05:29:49;430948.00;1.44;743.02;0.00;0.00;0.62;;;;;15.00;10.20;;;;;;2261389;61;1063;-88
2022/11/16 05:32:17;1127955.00;3.76;1960.49;14987.00;0.05;26.59;;;;;15.30;9.50;;;;;;2261160;61;1507;-88
2022/11/16 05:34:44;36816.00;0.12;64.38;0.00;0.00;0.62;;;;;15.70;8.70;;;;;;2261212;61;1997;-87
2022/11/16 05:37:12;232032.00;0.77;401.04;0.00;0.00;0.62;;;;;15.70;7.80;;;;;;2261354;61;1767;-87
2022/11/16 05:39:39;932176.00;3.11;1612.70;64992.00;0.22;113.11;;;;;15.90;7.20;;;;;;2261105;61;1113;-88
2022/11/16 05:42:08;717867.00;2.39;1238.24;0.00;0.00;0.62;;;;;15.80;7.20;;;;;;2261134;61;1074;-87
2022/11/16 05:44:35;466604.00;1.56;804.35;91190.00;0.30;158.36;;;;;15.80;6.80;;;;;;2261043;61;1728;-87
2022/11/16 05:47:02;1401525.00;4.67;2459.15;188425.00;0.63;326.00;;;;;15.80;6.90;;;;;;2261225;61;1382;-88
2022/11/16 05:49:30;682513.00;2.28;1176.93;104411.00;0.35;181.19;;;;;15.80;6.80;;;;;;2265524;56;3761;-88
2022/11/16 05:54:25;699122.00;2.33;1205.72;0.00;0.00;0.62;;;;;15.70;7.70;;;;;;2258995;61;1902;-89
2022/11/16 05:56:53;321340.00;1.07;554.60;0.00;0.00;0.62;;;;;15.70;7.20;;;;;;2257261;61;1583;-88
2022/11/16 05:59:23;137555.00;0.46;238.36;0.00;0.00;0.62;;;;;15.80;7.40;;;;;;2257093;61;1687;-88
2022/11/16 06:01:50;284842.00;0.95;491.86;0.00;0.00;0.62;;;;;15.80;7.00;;;;;;2257328;61;1115;-88
2022/11/16 06:04:18;333994.00;1.11;576.35;0.00;0.00;0.62;;;;;16.00;7.60;;;;;;2257075;61;1065;-88
2022/11/16 06:06:45;393513.00;1.31;678.65;0.00;0.00;0.62;;;;;15.80;6.50;;;;;;2257131;61;1283;-88
2022/11/16 06:09:13;254352.00;0.85;439.44;0.00;0.00;0.62;;;;;15.80;7.20;;;;;;2256997;61;1634;-87
2022/11/16 06:11:41;271247.00;0.90;468.49;0.00;0.00;0.62;;;;;15.50;7.40;;;;;;2257239;61;1628;-88
2022/11/16 06:14:08;359829.00;1.20;620.75;39777.00;0.13;69.50;;;;;15.20;8.20;;;;;;2257094;61;1999;-89
2022/11/16 06:16:36;335312.00;1.12;578.62;20257.00;0.07;35.72;;;;;15.10;8.90;;;;;;2257105;61;1023;-88
2022/11/16 06:19:03;809989.00;2.70;1398.55;75047.00;0.25;130.48;;;;;14.80;9.20;;;;;;2256329;61;1812;-87
2022/11/16 06:26:29;769460.00;2.56;1327.91;0.00;0.00;0.62;;;;;15.30;9.30;;;;;;2258102;61;1343;-88
2022/11/16 06:28:57;1120883.00;3.74;1947.81;87044.00;0.29;151.20;;;;;15.50;8.50;;;;;;2256316;61;1588;-86
2022/11/16 06:31:24;1326336.00;4.42;2320.38;177273.00;0.59;306.79;;;;;15.40;8.30;;;;;;2263432;40;3702;-88
2022/11/16 06:33:52;1771086.00;5.90;3164.40;173928.00;0.58;301.03;;;;;15.50;8.60;;;;;;2260365;61;1914;-89
2022/11/16 06:36:19;1175488.00;3.92;2045.96;237343.00;0.79;410.18;;;;;15.70;8.00;;;;;;2260496;61;1754;-88
2022/11/16 06:41:16;1148181.00;3.83;1996.81;85085.00;0.28;147.82;;;;;15.80;7.80;;;;;;2258274;61;1417;-88
2022/11/16 06:43:43;471326.00;1.57;812.47;83454.00;0.28;145.00;;;;;15.90;7.20;;;;;;2290144;40;3583;-87
2022/11/16 06:46:11;361598.00;1.21;623.80;75661.00;0.25;131.54;;;;;15.80;7.10;;;;;;2260470;61;1578;-88
2022/11/16 06:48:38;481696.00;1.61;830.32;107387.00;0.36;186.32;;;;;15.70;7.50;;;;;;2257024;61;1534;-87
2022/11/16 06:51:06;100466.00;0.33;174.38;0.00;0.00;0.62;;;;;15.70;7.20;;;;;;2265508;40;3735;-87
2022/11/16 06:56:04;314235.00;1.05;542.39;0.00;0.00;0.62;;;;;15.80;7.40;;;;;;2258095;61;1430;-86
2022/11/16 07:01:06;361110.00;1.20;622.96;0.00;0.00;0.62;;;;;15.80;6.70;;;;;;2258312;61;1414;-88
2022/11/16 07:03:33;152412.00;0.51;263.96;0.00;0.00;0.62;;;;;15.80;7.40;;;;;;2256230;61;1754;-88
2022/11/16 07:06:05;243859.00;0.81;421.39;0.00;0.00;0.62;;;;;15.80;7.00;;;;;;2256317;61;1626;-89
2022/11/16 07:13:37;2077702.00;6.93;3785.11;61203.00;0.20;106.56;;;;;16.40;6.60;;;;;;1416302;41;3422;-89
2022/11/16 07:18:34;1221094.00;4.07;2128.41;99772.00;0.33;173.18;;;;;16.60;5.60;;;;;;2266517;56;3722;-89
2022/11/16 07:21:06;531015.00;1.77;915.24;75867.00;0.25;131.90;;;;;16.70;5.90;;;;;;2248511;61;1161;-88
2022/11/16 07:23:34;323517.00;1.08;558.34;79186.00;0.26;137.63;;;;;16.60;5.40;;;;;;2248396;61;1123;-89
2022/11/16 07:26:01;272899.00;0.91;471.33;82631.00;0.28;143.58;;;;;16.40;5.80;;;;;;2248382;61;1071;-90
2022/11/16 07:31:03;686821.00;2.29;1184.39;0.00;0.00;0.62;;;;;16.20;6.10;;;;;;2257567;61;1441;-88
2022/11/16 07:33:30;408217.00;1.36;703.93;83177.00;0.28;144.52;;;;;16.30;6.20;;;;;;2256394;61;2005;-88
2022/11/16 07:36:02;162076.00;0.54;280.62;0.00;0.00;0.62;;;;;16.40;6.20;;;;;;2256212;61;1166;-88
2022/11/16 07:38:30;220234.00;0.73;380.75;0.00;0.00;0.62;;;;;16.50;5.60;;;;;;2256248;61;1607;-89
2022/11/16 07:41:00;229652.00;0.77;396.95;0.00;0.00;0.62;;;;;16.60;4.80;;;;;;2256266;61;1153;-89
2022/11/16 07:45:57;580639.00;1.94;1000.80;0.00;0.00;0.62;;;;;16.80;5.30;;;;;;2257951;61;1374;-88
2022/11/16 07:48:25;27552.00;0.09;48.35;0.00;0.00;0.62;;;;;16.70;4.60;;;;;;2256206;61;1292;-86
2022/11/16 07:50:53;168379.00;0.56;291.47;0.00;0.00;0.62;;;;;16.60;5.70;;;;;;2256218;61;1749;-89
2022/11/16 07:53:23;141758.00;0.47;245.60;0.00;0.00;0.62;;;;;16.70;5.50;;;;;;2256012;61;1908;-88
2022/11/16 07:55:53;139196.00;0.46;241.18;0.00;0.00;0.62;;;;;16.60;5.70;;;;;;2256304;61;1064;-89
2022/11/16 07:58:20;102923.00;0.34;178.62;0.00;0.00;0.62;;;;;16.40;6.60;;;;;;2256265;61;1657;-87
2022/11/16 08:00:48;134891.00;0.45;233.76;0.00;0.00;0.62;;;;;16.30;6.10;;;;;;2256289;61;1017;-86
2022/11/16 08:03:16;118129.00;0.39;204.85;0.00;0.00;0.62;;;;;16.50;6.30;;;;;;2256328;61;1096;-88
2022/11/16 08:05:44;345662.00;1.15;596.41;44783.00;0.15;78.16;;;;;16.60;6.10;;;;;;2256360;61;1155;-88
2022/11/16 08:08:12;105166.00;0.35;182.49;0.00;0.00;0.62;;;;;16.70;5.40;;;;;;2264782;40;3682;-88
2022/11/16 08:10:40;188162.00;0.63;325.54;0.00;0.00;0.62;;;;;16.60;5.80;;;;;;2260112;61;1752;-87
2022/11/16 08:13:07;27336.00;0.09;47.97;0.00;0.00;0.62;;;;;16.60;6.20;;;;;;2260313;61;1766;-89
2022/11/16 08:15:34;197480.00;0.66;341.59;0.00;0.00;0.62;;;;;16.70;6.20;;;;;;2260295;61;1942;-89
2022/11/16 08:18:02;527449.00;1.76;909.10;71233.00;0.24;123.89;;;;;16.80;6.10;;;;;;2261615;56;3745;-87
2022/11/16 08:20:30;354228.00;1.18;611.13;38575.00;0.13;67.42;;;;;16.80;5.70;;;;;;2256039;61;1662;-87
2022/11/16 08:27:57;2180861.00;7.27;4002.55;106547.00;0.36;184.87;;;;;17.00;5.90;;;;;;2282957;41;3491;-86
2022/11/16 08:30:24;1085615.00;3.62;1884.72;69211.00;0.23;120.40;;;;;16.90;5.60;;;;;;2255717;61;1159;-88
2022/11/16 08:32:51;509638.00;1.70;878.42;78488.00;0.26;136.43;;;;;17.00;5.20;;;;;;2255862;61;1591;-89
2022/11/16 08:37:48;844997.00;2.82;1459.71;0.00;0.00;0.62;;;;;17.00;4.00;;;;;;2257716;61;1392;-87
2022/11/16 08:40:15;201258.00;0.67;348.09;84606.00;0.28;146.99;;;;;17.10;4.00;;;;;;2256022;61;1061;-88
2022/11/16 08:45:14;521454.00;1.74;898.77;0.00;0.00;0.62;;;;;17.20;4.10;;;;;;2249915;61;1336;-89
2022/11/16 08:50:09;752466.00;2.51;1298.35;0.00;0.00;0.62;;;;;17.40;4.30;;;;;;2257833;61;1428;-90
2022/11/16 09:23:16;1213461.00;4.04;2114.58;124762.00;0.42;216.30;;;;;17.20;4.10;;;;;;2491873;41;3512;31
2022/11/16 09:55:49;1499566.00;5.00;2642.30;26696.00;0.09;46.86;;;;;17.50;1.30;;;;;;2250921;62;1879;-90
2022/11/16 10:01:01;740394.00;2.47;1277.36;74872.00;0.25;130.18;;;;;17.50;1.70;;;;;;2262843;61;1289;-90
2022/11/16 10:26:54;1627316.00;5.42;2885.06;89162.00;0.30;154.86;;;;;17.30;1.00;;;;;;2501381;40;3513;31
2022/11/16 11:35:23;1106331.00;3.69;1921.75;4713.00;0.02;8.79;;;;;18.40;1.00;;;;;;2268933;61;1018;-90
2022/11/16 13:47:26;1125118.00;3.75;1955.40;0.00;0.00;0.62;;;;;16.60;1.00;;;;;;2282487;61;1318;-89
2022/11/16 14:23:21;1330980.00;4.44;2328.92;74663.00;0.25;129.82;;;;;17.80;1.00;;;;;;2496687;40;3368;31
2022/11/16 16:01:54;123899904.00;413.00;77055928.00;0.00;0.00;0.62;;;;;17.60;1.00;;;;;;2266582;61;1015;-90
2022/11/16 16:22:02;2281989.00;7.61;4220.33;138333.00;0.46;239.70;;;;;17.10;1.00;;;;;;2293272;55;3681;-88
2022/11/16 16:24:39;1640660.00;5.47;2910.70;253747.00;0.85;438.40;;;;;17.20;1.00;;;;;;2328731;40;3633;-90
2022/11/16 16:29:42;418430.00;1.39;721.49;79478.00;0.26;138.14;;;;;16.90;1.00;;;;;;1159349;40;3184;-88
2022/11/16 16:39:45;203965.00;0.68;352.75;0.00;0.00;0.62;;;;;16.60;1.00;;;;;;1366930;40;3197;-88
2022/11/16 17:00:13;1009771.00;3.37;1749.79;0.00;0.00;0.62;;;;;16.70;1.00;;;;;;2293043;39;3625;-88
2022/11/16 17:05:10;1051381.00;3.50;1823.69;0.00;0.00;0.62;;;;;16.40;1.00;;;;;;2301350;40;3672;-88
2022/11/16 17:07:37;118869064.00;396.23;68037712.00;6840.00;0.02;12.47;;;;;16.20;1.00;;;;;;2284260;60;1291;-89
2022/11/16 17:10:05;598366.00;1.99;1031.40;78163.00;0.26;135.86;;;;;16.00;1.00;;;;;;2408638;40;3568;-89
2022/11/16 17:12:33;850692.00;2.84;1469.68;111267.00;0.37;193.02;;;;;15.90;1.00;;;;;;2288372;60;1696;-88
2022/11/16 17:17:36;1084871.00;3.62;1883.39;69805.00;0.23;121.42;;;;;15.90;1.00;;;;;;2282361;61;1354;-88
2022/11/16 17:27:40;1165115.00;3.88;2027.27;73295.00;0.24;127.45;;;;;16.00;1.00;;;;;;2282801;61;1299;-89
2022/11/16 17:52:50;396369.00;1.32;683.56;0.00;0.00;0.62;;;;;15.00;1.00;;;;;;2274758;40;3477;-87
2022/11/16 18:00:25;217034.00;0.72;375.24;0.00;0.00;0.62;;;;;14.70;1.00;;;;;;1600993;59;3390;-89
2022/11/16 18:02:53;1185131.00;3.95;2063.36;53413.00;0.18;93.09;;;;;14.50;1.00;;;;;;2291423;40;3603;-89
2022/11/16 18:05:21;532034.00;1.77;917.00;85325.00;0.28;148.23;;;;;14.30;1.00;;;;;;2284226;60;1907;-88
2022/11/16 18:07:50;312101.00;1.04;538.72;0.00;0.00;0.62;;;;;14.10;1.00;;;;;;2304300;56;3760;-86
2022/11/16 18:12:47;651209.00;2.17;1122.73;0.00;0.00;0.62;;;;;13.70;1.00;;;;;;2266133;61;1288;-88
2022/11/16 18:15:14;380662.00;1.27;656.56;0.00;0.00;0.62;;;;;13.60;1.00;;;;;;2264395;61;986;-88
2022/11/16 18:17:41;272980.00;0.91;471.47;63356.00;0.21;110.28;;;;;13.60;1.00;;;;;;2284689;39;3592;-88
2022/11/16 18:20:10;404021.00;1.35;696.72;0.00;0.00;0.62;;;;;13.90;3.10;;;;;;2294903;39;3581;-88
2022/11/16 18:32:44;1152778.00;3.84;2005.07;34590.00;0.12;60.53;;;;;14.10;1.00;;;;;;2301552;40;3478;-90
2022/11/16 18:37:42;1259390.00;4.20;2197.97;26709.00;0.09;46.89;;;;;13.30;1.00;;;;;;2307815;39;3556;-87
2022/11/16 18:40:10;1200747.00;4.00;2091.57;93713.00;0.31;162.72;;;;;13.40;1.00;;;;;;2288990;60;1084;-89
2022/11/16 18:42:38;1453018.00;4.84;2555.02;146486.00;0.49;253.75;;;;;13.20;1.00;;;;;;2289076;60;1026;-90
2022/11/16 18:45:07;527888.00;1.76;909.85;92472.00;0.31;160.58;;;;;12.90;1.00;;;;;;2288198;60;1997;-87
2022/11/16 18:52:58;1274045.00;4.25;2224.68;69057.00;0.23;120.13;;;;;12.80;1.00;;;;;;2290232;60;1553;-88
2022/11/16 19:00:28;1895817.00;6.32;3412.55;160911.00;0.54;278.61;;;;;14.30;2.60;;;;;;2282868;61;1423;-88
2022/11/16 19:02:55;1329986.00;4.43;2327.09;44498.00;0.15;77.67;;;;;14.60;3.90;;;;;;2280806;61;1156;-91
2022/11/16 19:05:22;1809463.00;6.03;3240.15;205640.00;0.69;355.63;;;;;14.80;2.30;;;;;;2280628;61;1919;-89
2022/11/16 19:07:49;642397.00;2.14;1107.48;97097.00;0.32;168.56;;;;;14.70;2.20;;;;;;2280701;60;1282;-88
2022/11/16 19:12:46;542480.00;1.81;935.00;12834.00;0.04;22.86;;;;;14.70;1.20;;;;;;2285430;40;3490;-88
2022/11/16 19:17:43;742011.00;2.47;1280.17;0.00;0.00;0.62;;;;;14.60;1.00;;;;;;2276238;55;3635;-89
2022/11/16 19:20:11;328462.00;1.09;566.84;0.00;0.00;0.62;;;;;14.50;1.00;;;;;;2284600;60;1610;-90
2022/11/16 19:22:38;193724.00;0.65;335.12;0.00;0.00;0.62;;;;;14.40;1.00;;;;;;2284635;60;1193;-89
2022/11/16 19:25:06;469688.00;1.57;809.65;0.00;0.00;0.62;;;;;14.30;1.00;;;;;;2303350;55;3760;-87
2022/11/16 19:37:38;2444972.00;8.15;4581.63;289480.00;0.96;499.84;;;;;14.20;2.00;;;;;;1569025;56;3568;-90
2022/11/16 19:42:35;2183847.00;7.28;4008.91;93448.00;0.31;162.26;;;;;14.10;1.00;;;;;;2282188;61;1403;-90
2022/11/16 19:50:10;1843534.00;6.15;3307.84;90961.00;0.30;157.97;;;;;14.30;2.00;;;;;;2283313;39;3662;-87
2022/11/16 19:52:40;382937.00;1.28;660.47;96482.00;0.32;167.50;;;;;14.30;2.00;;;;;;2267802;60;1127;-88
2022/11/16 19:55:07;246363.00;0.82;425.70;0.00;0.00;0.62;;;;;14.30;2.00;;;;;;2267849;60;1180;-89
2022/11/16 19:57:34;640704.00;2.14;1104.56;76402.00;0.25;132.82;;;;;14.50;1.80;;;;;;2268003;60;1368;-88
2022/11/16 20:02:30;562983.00;1.88;970.34;69101.00;0.23;120.21;;;;;14.50;2.10;;;;;;2266013;60;1435;-89
2022/11/16 20:07:27;504383.00;1.68;869.37;0.00;0.00;0.62;;;;;14.40;1.00;;;;;;2265453;60;1968;-88
2022/11/16 20:12:25;422590.00;1.41;728.64;0.00;0.00;0.62;;;;;14.60;2.20;;;;;;2282238;60;1382;-88
2022/11/16 20:19:53;662192.00;2.21;1141.73;0.00;0.00;0.62;;;;;14.40;2.00;;;;;;2265805;60;1223;-89
2022/11/16 20:22:20;288688.00;0.96;498.47;0.00;0.00;0.62;;;;;14.40;1.40;;;;;;2263949;60;1121;-89
2022/11/16 20:24:47;317359.00;1.06;547.76;0.00;0.00;0.62;;;;;14.40;1.00;;;;;;2263796;60;1579;-88
2022/11/16 20:29:49;1248869.00;4.16;2178.83;57372.00;0.19;99.93;;;;;14.70;1.20;;;;;;2282471;61;1338;-90
2022/11/16 20:34:45;1600232.00;5.33;2833.18;114801.00;0.38;199.11;;;;;13.70;1.00;;;;;;2285991;60;1273;-88
2022/11/16 20:42:14;1265524.00;4.22;2209.15;156587.00;0.52;271.16;;;;;13.70;3.60;;;;;;2282493;61;1434;-89
2022/11/16 20:44:41;369476.00;1.23;637.34;85521.00;0.29;148.57;;;;;14.00;3.00;;;;;;2280441;61;1144;-87
2022/11/16 20:47:10;297559.00;0.99;513.72;79895.00;0.27;138.86;;;;;14.40;2.70;;;;;;2280201;61;1996;-87
2022/11/16 20:49:37;234488.00;0.78;405.27;90546.00;0.30;157.25;;;;;14.70;2.30;;;;;;2280343;61;1766;-87
2022/11/16 20:52:04;272743.00;0.91;471.06;87520.00;0.29;152.03;;;;;14.90;1.00;;;;;;2280285;61;1086;-89
2022/11/16 20:56:58;425340.00;1.42;733.37;93993.00;0.31;163.20;;;;;13.50;1.00;;;;;;2265284;60;1394;-87
2022/11/16 20:59:25;319176.00;1.06;550.88;103162.00;0.34;179.03;;;;;13.40;2.60;;;;;;2263907;60;1086;-90
2022/11/16 21:01:52;229759.00;0.77;397.13;89056.00;0.30;154.68;;;;;13.60;3.00;;;;;;2263687;60;1118;-88
2022/11/16 21:04:21;211596.00;0.71;365.88;70785.00;0.24;123.12;;;;;13.60;1.50;;;;;;2263947;60;1120;-88
2022/11/16 21:06:48;233820.00;0.78;404.12;77849.00;0.26;135.32;;;;;13.60;2.30;;;;;;2263735;60;2015;-89
2022/11/16 21:09:21;164979.00;0.55;285.62;81457.00;0.27;141.55;;;;;13.60;1.00;;;;;;2263424;60;1108;-88
2022/11/16 21:14:33;258095.00;0.86;445.87;75457.00;0.25;131.19;;;;;13.40;1.00;;;;;;2263947;60;695;-90
2022/11/16 21:17:00;117148456.00;390.49;65123200.00;0.00;0.00;0.62;;;;;13.10;1.00;;;;;;2263504;60;1363;-88
2022/11/16 21:22:01;337063.00;1.12;581.63;0.00;0.00;0.62;;;;;13.10;1.00;;;;;;2265114;60;1407;-87
2022/11/16 21:26:58;324384.00;1.08;559.83;85351.00;0.28;148.28;;;;;12.80;1.00;;;;;;2265567;60;1974;-88